createdAt,value
2022-10-26T00:01:18.741Z,100.00
2022-10-26T00:06:25.322Z,100.00
2022-10-26T00:11:30.497Z,100.00
2022-10-26T00:16:34.192Z,100.00
2022-10-26T00:21:37.883Z,100.00
2022-10-26T00:26:43.163Z,100.00
2022-10-26T00:31:46.937Z,100.00
2022-10-26T00:36:50.637Z,100.00
2022-10-26T00:41:55.732Z,100.00
2022-10-26T00:46:59.422Z,100.00
2022-10-26T00:52:03.212Z,100.00
2022-10-26T00:57:08.915Z,100.00
2022-10-26T01:02:13.296Z,100.00
2022-10-26T01:07:17.363Z,100.00
2022-10-26T01:12:22.414Z,100.00
2022-10-26T01:17:44.281Z,100.00
2022-10-26T01:22:55.294Z,100.00
2022-10-26T01:28:03.757Z,100.00
2022-10-26T01:33:36.199Z,100.00
2022-10-26T01:38:53.541Z,100.00
2022-10-26T01:43:58.657Z,100.00
2022-10-26T01:49:09.832Z,100.00
2022-10-26T01:54:13.476Z,100.00
2022-10-26T01:59:48.653Z,100.00
2022-10-26T02:05:09.057Z,100.00
2022-10-26T02:10:23.944Z,100.00
2022-10-26T02:15:35.156Z,100.00
2022-10-26T02:20:44.457Z,100.00
2022-10-26T02:25:54.648Z,100.00
2022-10-26T02:31:00.827Z,100.00
2022-10-26T02:36:10.125Z,100.00
2022-10-26T02:41:16.196Z,100.00
2022-10-26T02:46:24.128Z,100.00
2022-10-26T02:51:35.925Z,100.00
2022-10-26T02:56:48.219Z,100.00
2022-10-26T03:01:53.200Z,100.00
2022-10-26T03:06:58.612Z,100.00
2022-10-26T03:12:02.513Z,100.00
2022-10-26T03:17:06.272Z,100.00
2022-10-26T03:22:11.415Z,100.00
2022-10-26T03:27:15.216Z,100.00
2022-10-26T03:32:18.935Z,100.00
2022-10-26T03:37:24.056Z,100.00
2022-10-26T03:42:28.077Z,100.00
2022-10-26T03:47:31.857Z,100.00
2022-10-26T03:52:36.973Z,100.00
2022-10-26T03:57:44.258Z,100.00
2022-10-26T04:02:55.882Z,100.00
2022-10-26T04:08:03.232Z,100.00
2022-10-26T04:13:07.011Z,100.00
2022-10-26T04:18:13.040Z,100.00
2022-10-26T04:23:19.820Z,100.00
2022-10-26T04:28:23.536Z,100.00
2022-10-26T04:33:27.344Z,100.00
2022-10-26T04:38:32.468Z,100.00
2022-10-26T04:43:36.312Z,100.00
2022-10-26T04:48:40.401Z,100.00
2022-10-26T04:53:45.534Z,100.00
2022-10-26T04:58:49.490Z,100.00
2022-10-26T05:03:54.113Z,100.00
2022-10-26T05:08:59.335Z,100.00
2022-10-26T05:14:03.265Z,100.00
2022-10-26T05:19:06.965Z,100.00
2022-10-26T05:24:12.619Z,100.00
2022-10-26T05:29:16.411Z,100.00
2022-10-26T05:34:20.205Z,100.00
2022-10-26T05:39:25.285Z,100.00
2022-10-26T05:44:29.057Z,100.00
2022-10-26T05:49:32.807Z,100.00
2022-10-26T05:54:37.872Z,100.00
2022-10-26T05:59:42.174Z,100.00
2022-10-26T06:04:48.511Z,100.00
2022-10-26T06:09:54.736Z,100.00
2022-10-26T06:14:59.813Z,100.00
2022-10-26T06:20:18.255Z,100.00
2022-10-26T06:25:33.853Z,100.00
2022-10-26T06:30:38.040Z,100.00
2022-10-26T06:35:51.593Z,100.00
2022-10-26T06:40:58.442Z,100.00
2022-10-26T06:46:13.029Z,100.00
2022-10-26T06:51:18.382Z,100.00
2022-10-26T06:56:24.858Z,100.00
2022-10-26T07:01:28.792Z,100.00
2022-10-26T07:06:34.434Z,100.00
2022-10-26T07:11:42.307Z,100.00
2022-10-26T07:16:46.193Z,100.00
2022-10-26T07:21:50.059Z,100.00
2022-10-26T07:26:56.985Z,100.00
2022-10-26T07:32:00.685Z,100.00
2022-10-26T07:37:04.514Z,100.00
2022-10-26T07:42:10.249Z,100.00
2022-10-26T07:47:14.038Z,100.00
2022-10-26T07:52:17.818Z,100.00
2022-10-26T07:57:23.007Z,100.00
2022-10-26T08:02:27.080Z,100.00
2022-10-26T08:07:30.999Z,100.00
2022-10-26T08:12:36.177Z,100.00
2022-10-26T08:17:40.164Z,100.00
2022-10-26T08:22:43.914Z,100.00
2022-10-26T08:27:49.392Z,100.00
2022-10-26T08:32:59.897Z,100.00
2022-10-26T08:38:03.920Z,100.00
2022-10-26T08:43:17.569Z,100.00
2022-10-26T08:48:25.517Z,100.00
2022-10-26T08:53:35.090Z,100.00
2022-10-26T08:58:44.873Z,100.00
2022-10-26T09:03:48.921Z,100.00
2022-10-26T09:09:02.796Z,100.00
2022-10-26T09:14:14.841Z,100.00
2022-10-26T09:19:45.631Z,100.00
2022-10-26T09:24:54.839Z,100.00
2022-10-26T09:30:05.181Z,100.00
2022-10-26T09:35:16.929Z,100.00
2022-10-26T09:40:26.531Z,100.00
2022-10-26T09:45:36.797Z,100.00
2022-10-26T09:50:43.991Z,100.00
2022-10-26T09:55:52.053Z,100.00
2022-10-26T10:00:57.846Z,100.00
2022-10-26T10:06:17.561Z,100.00
2022-10-26T10:11:21.249Z,100.00
2022-10-26T10:16:27.496Z,100.00
2022-10-26T10:21:39.047Z,100.00
2022-10-26T10:26:57.996Z,100.00
2022-10-26T10:32:04.604Z,100.00
2022-10-26T10:37:23.424Z,100.00
2022-10-26T10:42:29.014Z,100.00
2022-10-26T10:47:35.316Z,100.00
2022-10-26T10:52:39.162Z,100.00
2022-10-26T10:57:55.577Z,100.00
2022-10-26T11:03:36.067Z,100.00
2022-10-26T11:08:47.654Z,100.00
2022-10-26T11:13:56.996Z,100.00
2022-10-26T11:19:06.035Z,100.00
2022-10-26T11:24:21.579Z,100.00
2022-10-26T11:29:38.251Z,99.07
2022-10-26T11:34:49.268Z,100.00
2022-10-26T11:40:03.594Z,100.00
2022-10-26T11:45:17.860Z,90.53
2022-10-26T11:50:24.096Z,80.07
2022-10-26T11:55:30.390Z,83.60
2022-10-26T12:00:35.919Z,86.48
2022-10-26T12:05:45.110Z,77.50
2022-10-26T12:10:58.368Z,70.39
2022-10-26T12:16:08.364Z,65.70
2022-10-26T12:21:13.687Z,69.47
2022-10-26T12:26:40.252Z,69.79
2022-10-26T12:31:45.223Z,63.75
2022-10-26T12:36:50.432Z,71.06
2022-10-26T12:41:59.206Z,67.29
2022-10-26T12:47:03.700Z,73.44
2022-10-26T12:52:21.099Z,73.19
2022-10-26T12:57:34.207Z,89.96
2022-10-26T13:02:53.073Z,95.14
2022-10-26T13:08:03.803Z,82.87
2022-10-26T13:13:10.147Z,73.12
2022-10-26T13:18:18.977Z,73.04
2022-10-26T13:23:26.969Z,66.82
2022-10-26T13:28:45.226Z,73.79
2022-10-26T13:33:53.367Z,70.91
2022-10-26T13:39:02.235Z,74.00
2022-10-26T13:44:16.613Z,69.33
2022-10-26T13:49:25.825Z,69.04
2022-10-26T13:54:35.372Z,70.18
2022-10-26T13:59:45.531Z,71.40
2022-10-26T14:04:52.877Z,69.36
2022-10-26T14:09:58.915Z,70.90
2022-10-26T14:15:08.908Z,77.43
2022-10-26T14:20:20.006Z,76.18
2022-10-26T14:25:35.925Z,75.85
2022-10-26T14:30:52.409Z,78.07
2022-10-26T14:35:57.519Z,78.48
2022-10-26T14:41:01.562Z,75.87
2022-10-26T14:46:07.410Z,71.66
2022-10-26T14:51:18.000Z,74.92
2022-10-26T14:56:25.898Z,71.85
2022-10-26T15:01:48.273Z,72.62
2022-10-26T15:06:52.684Z,74.71
2022-10-26T15:11:56.581Z,88.78
2022-10-26T15:17:02.809Z,94.64
2022-10-26T15:22:06.734Z,100.00
2022-10-26T15:27:16.364Z,100.00
2022-10-26T15:32:28.357Z,100.00
2022-10-26T15:37:32.293Z,100.00
2022-10-26T15:42:38.879Z,100.00
2022-10-26T15:47:44.502Z,100.00
2022-10-26T15:52:49.431Z,100.00
2022-10-26T15:57:53.738Z,100.00
2022-10-26T16:02:58.954Z,100.00
2022-10-26T16:08:02.858Z,100.00
2022-10-26T16:13:12.244Z,100.00
2022-10-26T16:18:17.354Z,100.00
2022-10-26T16:23:21.198Z,100.00
2022-10-26T16:28:24.930Z,100.00
2022-10-26T16:33:30.458Z,100.00
2022-10-26T16:38:34.642Z,100.00
2022-10-26T16:43:40.298Z,100.00
2022-10-26T16:48:45.824Z,100.00
2022-10-26T16:53:50.978Z,100.00
2022-10-26T16:58:57.737Z,100.00
2022-10-26T17:09:07.626Z,100.00
2022-10-26T17:14:11.745Z,100.00
2022-10-26T17:19:17.081Z,100.00
2022-10-26T17:24:21.033Z,100.00
2022-10-26T17:29:25.071Z,100.00
2022-10-26T17:34:30.375Z,100.00
2022-10-26T17:39:34.272Z,100.00
2022-10-26T17:44:39.189Z,100.00
2022-10-26T17:49:44.542Z,100.00
2022-10-26T17:54:48.265Z,100.00
2022-10-26T17:59:52.193Z,100.00
2022-10-26T18:04:57.438Z,100.00
2022-10-26T18:10:14.048Z,100.00
2022-10-26T18:15:25.555Z,100.00
2022-10-26T18:20:30.909Z,100.00
2022-10-26T18:25:36.233Z,100.00
2022-10-26T18:30:40.247Z,100.00
2022-10-26T18:35:46.385Z,100.00
2022-10-26T18:40:53.852Z,100.00
2022-10-26T18:46:05.580Z,100.00
2022-10-26T18:51:12.464Z,100.00
2022-10-26T18:56:18.920Z,100.00
2022-10-26T19:01:24.771Z,100.00
2022-10-26T19:06:32.622Z,100.00
2022-10-26T19:11:37.145Z,100.00
2022-10-26T19:16:45.846Z,100.00
2022-10-26T19:21:53.936Z,100.00
2022-10-26T19:26:57.898Z,100.00
2022-10-26T19:32:02.956Z,100.00
2022-10-26T19:37:09.589Z,100.00
2022-10-26T19:42:13.538Z,100.00
2022-10-26T19:47:17.336Z,100.00
2022-10-26T19:52:22.548Z,100.00
2022-10-26T19:57:26.401Z,100.00
2022-10-26T20:02:30.156Z,100.00
2022-10-26T20:07:35.495Z,100.00
2022-10-26T20:12:39.392Z,100.00
2022-10-26T20:17:43.131Z,100.00
2022-10-26T20:22:48.606Z,100.00
2022-10-26T20:27:52.945Z,100.00
2022-10-26T20:32:57.689Z,100.00
2022-10-26T20:38:04.012Z,100.00
2022-10-26T20:43:10.228Z,100.00
2022-10-26T20:48:14.982Z,100.00
2022-10-26T20:53:26.651Z,100.00
2022-10-26T20:58:39.147Z,100.00
2022-10-26T21:03:43.076Z,100.00
2022-10-26T21:08:51.445Z,100.00
2022-10-26T21:13:56.046Z,100.00
2022-10-26T21:19:01.534Z,100.00
2022-10-26T21:24:07.737Z,100.00
2022-10-26T21:29:12.128Z,100.00
2022-10-26T21:34:16.050Z,100.00
2022-10-26T21:39:21.263Z,100.00
2022-10-26T21:44:40.348Z,100.00
2022-10-26T21:49:45.026Z,100.00
2022-10-26T21:54:50.264Z,100.00
2022-10-26T21:59:54.182Z,100.00
2022-10-26T22:04:57.987Z,100.00
2022-10-26T22:10:11.168Z,100.00
2022-10-26T22:15:15.453Z,100.00
2022-10-26T22:20:19.513Z,100.00
2022-10-26T22:25:24.633Z,100.00
2022-10-26T22:30:28.411Z,100.00
2022-10-26T22:35:32.165Z,100.00
2022-10-26T22:40:37.376Z,100.00
2022-10-26T22:45:41.226Z,100.00
2022-10-26T22:50:45.042Z,100.00
2022-10-26T22:55:50.540Z,100.00
2022-10-26T23:00:54.297Z,100.00
2022-10-26T23:05:58.429Z,100.00
2022-10-26T23:11:06.618Z,100.00
2022-10-26T23:16:12.493Z,100.00
2022-10-26T23:21:17.711Z,100.00
2022-10-26T23:26:23.299Z,100.00
2022-10-26T23:31:28.532Z,100.00
2022-10-26T23:36:32.431Z,100.00
2022-10-26T23:41:37.571Z,100.00
2022-10-26T23:46:41.341Z,100.00
2022-10-26T23:51:45.077Z,100.00
2022-10-26T23:56:50.286Z,100.00
